Kilgore, Nebraska
Current Conditions -  °F | °C
As of 3:52 AM on Saturday 25 Oct 2014 (Local Time) from KVTN Reporting Station
Clear Clear  
Wind Chill: 44°   Ceiling: Unl
Heat Index: 48°   Visibility: 10mi
Dew Point: 34°   Wind: 8mph
Humidity: 58%   Direction: 40°NE
Pressure: 30.13"   Gusts: NA
Location:  42.94°N, 100.96°W
Report Text: KVTN 250952Z AUTO 04007KT 10SM CLR 09/01 A3013 RMK AO2 SLP193 T00890011
Loading
Personal Weather Stations






























Interactive Weather Map
Tropical Storm Tracking
New forecast layout! Learn more

10-Day Weather Forecast

Advertisements
Track Severe Weather on mobile